Time,TemperatureF,DewpointF,PressureIn,WindDirection,WindDirectionDegrees,WindSpeedMPH,WindSpeedGustMPH,Humidity,HourlyPrecipIn,Conditions,Clouds,dailyrainin,SoftwareType,DateUTC
2016-07-24 00:00:00,69.3,63.2,29.84,WNW,300,6.7,6.7,81,0.00,,---,0.00,VWS V15.00,2016-07-24 04:00:00,
2016-07-24 00:05:00,69.3,63.2,29.84,WNW,301,4.0,4.5,81,0.00,,---,0.00,VWS V15.00,2016-07-24 04:05:00,
2016-07-24 00:10:00,69.1,63.0,29.84,NW,309,6.3,7.8,81,0.00,,---,0.00,VWS V15.00,2016-07-24 04:10:00,
2016-07-24 00:15:00,69.1,63.0,29.84,WNW,297,5.4,5.8,81,0.00,,---,0.00,VWS V15.00,2016-07-24 04:15:00,
2016-07-24 00:20:00,69.1,63.0,29.84,WNW,296,4.0,4.5,81,0.00,,---,0.00,VWS V15.00,2016-07-24 04:20:00,
2016-07-24 00:25:00,69.1,63.0,29.84,NW,306,3.6,4.5,81,0.00,,---,0.00,VWS V15.00,2016-07-24 04:25:00,
2016-07-24 00:30:00,69.1,63.0,29.84,NNW,331,4.0,4.5,81,0.00,,---,0.00,VWS V15.00,2016-07-24 04:30:00,
2016-07-24 00:35:00,68.9,63.5,29.84,NW,322,3.1,4.9,83,0.00,,---,0.00,VWS V15.00,2016-07-24 04:35:00,
2016-07-24 00:40:00,68.9,63.2,29.84,NW,310,4.9,5.8,82,0.00,,---,0.00,VWS V15.00,2016-07-24 04:40:00,
2016-07-24 00:45:00,68.9,63.2,29.84,NW,305,6.9,7.8,82,0.00,,---,0.00,VWS V15.00,2016-07-24 04:45:00,
2016-07-24 00:50:00,68.9,62.8,29.84,NW,311,7.4,8.3,81,0.00,,---,0.00,VWS V15.00,2016-07-24 04:50:00,
2016-07-24 00:55:00,68.9,62.8,29.84,NNW,328,6.9,8.7,81,0.00,,---,0.00,VWS V15.00,2016-07-24 04:55:00,
2016-07-24 01:00:00,68.9,62.5,29.84,NW,315,6.7,6.9,80,0.00,,---,0.00,VWS V15.00,2016-07-24 05:00:00,
2016-07-24 01:05:00,69.1,62.3,29.84,NW,306,11.6,11.6,79,0.00,,---,0.00,VWS V15.00,2016-07-24 05:05:00,
2016-07-24 01:10:00,69.3,61.8,29.84,WNW,302,11.0,11.0,77,0.00,,---,0.00,VWS V15.00,2016-07-24 05:10:00,
2016-07-24 01:15:00,69.4,60.8,29.84,NNW,333,8.7,9.2,74,0.00,,---,0.00,VWS V15.00,2016-07-24 05:15:00,
2016-07-24 01:20:00,69.4,60.0,29.84,NW,310,11.0,11.0,72,0.00,,---,0.00,VWS V15.00,2016-07-24 05:20:00,
2016-07-24 01:25:00,69.4,60.0,29.84,NW,311,8.3,8.7,72,0.00,,---,0.00,VWS V15.00,2016-07-24 05:25:00,
2016-07-24 01:30:00,69.3,59.9,29.84,WNW,292,9.2,10.5,72,0.00,,---,0.00,VWS V15.00,2016-07-24 05:30:00,
2016-07-24 01:35:00,69.1,59.7,29.84,NW,306,9.6,10.1,72,0.00,,---,0.00,VWS V15.00,2016-07-24 05:35:00,
2016-07-24 01:40:00,69.1,59.3,29.84,WNW,300,11.0,11.0,71,0.00,,---,0.00,VWS V15.00,2016-07-24 05:40:00,
2016-07-24 01:45:00,69.3,59.5,29.84,NW,307,9.6,9.6,71,0.00,,---,0.00,VWS V15.00,2016-07-24 05:45:00,
2016-07-24 01:50:00,69.3,59.1,29.84,NW,311,9.6,10.1,70,0.00,,---,0.00,VWS V15.00,2016-07-24 05:50:00,
2016-07-24 01:55:00,69.3,59.1,29.87,NW,319,9.6,9.6,70,0.00,,---,0.00,VWS V15.00,2016-07-24 05:55:00,
2016-07-24 02:00:00,69.4,59.2,29.87,NNW,334,8.3,11.6,70,0.00,,---,0.00,VWS V15.00,2016-07-24 06:00:00,
2016-07-24 02:05:00,69.6,59.0,29.87,North,351,11.2,12.5,69,0.00,,---,0.00,VWS V15.00,2016-07-24 06:05:00,
2016-07-24 02:10:00,69.6,59.0,29.84,NW,325,10.5,10.5,69,0.00,,---,0.00,VWS V15.00,2016-07-24 06:10:00,
2016-07-24 02:15:00,69.4,59.2,29.84,NNW,329,10.5,11.2,70,0.00,,---,0.00,VWS V15.00,2016-07-24 06:15:00,
2016-07-24 02:20:00,69.4,59.2,29.84,NW,315,9.2,13.0,70,0.00,,---,0.00,VWS V15.00,2016-07-24 06:20:00,
2016-07-24 02:25:00,69.3,59.5,29.84,NW,326,11.2,12.5,71,0.00,,---,0.00,VWS V15.00,2016-07-24 06:25:00,
2016-07-24 02:30:00,69.3,59.5,29.84,NW,318,9.6,9.6,71,0.00,,---,0.00,VWS V15.00,2016-07-24 06:30:00,
2016-07-24 02:35:00,69.1,59.7,29.84,NW,308,7.8,7.8,72,0.00,,---,0.00,VWS V15.00,2016-07-24 06:35:00,
2016-07-24 02:40:00,69.1,60.1,29.87,NW,318,12.1,12.1,73,0.00,,---,0.00,VWS V15.00,2016-07-24 06:40:00,
2016-07-24 02:45:00,68.9,60.7,29.87,NW,312,12.5,12.5,75,0.00,,---,0.00,VWS V15.00,2016-07-24 06:45:00,
2016-07-24 02:50:00,68.7,60.9,29.87,NW,306,9.2,9.2,76,0.00,,---,0.00,VWS V15.00,2016-07-24 06:50:00,
2016-07-24 02:55:00,68.5,61.0,29.87,West,279,7.4,10.1,77,0.00,,---,0.00,VWS V15.00,2016-07-24 06:55:00,
2016-07-24 03:00:00,68.4,61.2,29.87,WNW,303,9.6,10.1,78,0.00,,---,0.00,VWS V15.00,2016-07-24 07:00:00,
2016-07-24 03:05:00,68.2,61.1,29.87,NW,307,9.2,13.4,78,0.00,,---,0.00,VWS V15.00,2016-07-24 07:05:00,
2016-07-24 03:10:00,68.0,61.2,29.87,WNW,290,11.2,11.6,79,0.00,,---,0.00,VWS V15.00,2016-07-24 07:10:00,
2016-07-24 03:14:00,68.0,61.2,29.87,NW,315,8.3,11.0,79,0.00,,---,0.00,VWS V15.00,2016-07-24 07:14:00,
2016-07-24 03:20:00,68.2,61.1,29.87,WNW,298,9.2,12.5,78,0.00,,---,0.00,VWS V15.00,2016-07-24 07:20:00,
2016-07-24 03:25:00,68.2,60.7,29.87,NW,319,10.5,11.6,77,0.00,,---,0.00,VWS V15.00,2016-07-24 07:25:00,
2016-07-24 03:30:00,68.2,60.7,29.87,NW,319,10.5,12.5,77,0.00,,---,0.00,VWS V15.00,2016-07-24 07:30:00,
2016-07-24 03:40:00,68.4,60.5,29.87,NW,311,11.2,13.0,76,0.00,,---,0.00,VWS V15.00,2016-07-24 07:40:00,
2016-07-24 03:45:00,68.4,60.1,29.87,NW,311,11.6,15.4,75,0.00,,---,0.00,VWS V15.00,2016-07-24 07:45:00,
2016-07-24 03:54:00,68.5,59.9,29.87,NW,319,10.1,15.2,74,0.00,,---,0.00,VWS V15.00,2016-07-24 07:54:00,
2016-07-24 03:59:00,68.7,59.7,29.87,NW,322,12.1,15.4,73,0.00,,---,0.00,VWS V15.00,2016-07-24 07:59:00,
2016-07-24 04:04:00,68.5,59.5,29.87,NW,324,12.1,14.8,73,0.00,,---,0.00,VWS V15.00,2016-07-24 08:04:00,
2016-07-24 04:09:00,68.5,59.5,29.87,NW,318,15.4,15.9,73,0.00,,---,0.00,VWS V15.00,2016-07-24 08:09:00,
2016-07-24 04:14:00,68.5,59.9,29.87,NW,317,10.5,13.9,74,0.00,,---,0.00,VWS V15.00,2016-07-24 08:14:00,
2016-07-24 04:19:00,68.5,59.9,29.87,NW,311,8.3,13.4,74,0.00,,---,0.00,VWS V15.00,2016-07-24 08:19:00,
2016-07-24 04:24:00,68.4,60.1,29.87,NW,313,11.0,13.4,75,0.00,,---,0.00,VWS V15.00,2016-07-24 08:24:00,
2016-07-24 04:29:00,68.4,60.1,29.87,WNW,295,5.8,8.3,75,0.00,,---,0.00,VWS V15.00,2016-07-24 08:29:00,
2016-07-24 04:34:00,68.2,60.7,29.87,NNW,330,8.7,11.2,77,0.00,,---,0.00,VWS V15.00,2016-07-24 08:34:00,
2016-07-24 04:39:00,68.2,60.7,29.87,NW,320,9.6,10.5,77,0.00,,---,0.00,VWS V15.00,2016-07-24 08:39:00,
2016-07-24 04:44:00,68.0,60.5,29.87,NW,318,10.5,13.0,77,0.00,,---,0.00,VWS V15.00,2016-07-24 08:44:00,
2016-07-24 04:49:00,68.0,60.5,29.87,NW,322,14.8,14.8,77,0.00,,---,0.00,VWS V15.00,2016-07-24 08:49:00,
2016-07-24 04:54:00,68.0,60.5,29.87,NW,313,11.2,12.5,77,0.00,,---,0.00,VWS V15.00,2016-07-24 08:54:00,
2016-07-24 04:59:00,68.0,60.5,29.87,North,8,7.4,11.6,77,0.00,,---,0.00,VWS V15.00,2016-07-24 08:59:00,
2016-07-24 05:04:00,67.8,60.3,29.87,NW,322,4.5,9.2,77,0.00,,---,0.00,VWS V15.00,2016-07-24 09:04:00,
2016-07-24 05:09:00,67.8,60.7,29.87,NNW,335,6.9,9.6,78,0.00,,---,0.00,VWS V15.00,2016-07-24 09:09:00,
2016-07-24 05:14:00,68.0,60.5,29.87,NW,314,7.4,8.3,77,0.00,,---,0.00,VWS V15.00,2016-07-24 09:14:00,
2016-07-24 05:19:00,67.8,60.3,29.87,NNW,327,8.3,8.3,77,0.00,,---,0.00,VWS V15.00,2016-07-24 09:19:00,
2016-07-24 05:24:00,67.6,60.5,29.87,NW,312,11.0,11.0,78,0.00,,---,0.00,VWS V15.00,2016-07-24 09:24:00,
2016-07-24 05:29:00,68.2,60.7,29.87,NW,319,7.8,10.5,77,0.00,,---,0.00,VWS V15.00,2016-07-24 09:29:00,
2016-07-24 05:34:00,68.0,60.2,29.87,NW,307,8.7,11.2,76,0.00,,---,0.00,VWS V15.00,2016-07-24 09:34:00,
2016-07-24 05:39:00,68.0,60.2,29.87,NW,315,8.7,9.2,76,0.00,,---,0.00,VWS V15.00,2016-07-24 09:39:00,
2016-07-24 05:44:00,68.4,60.1,29.87,NW,319,7.4,9.2,75,0.00,,---,0.00,VWS V15.00,2016-07-24 09:44:00,
2016-07-24 05:49:00,68.9,59.5,29.87,NW,309,7.8,10.1,72,0.00,,---,0.00,VWS V15.00,2016-07-24 09:49:00,
2016-07-24 05:54:00,69.6,59.4,29.87,NNW,329,8.7,10.5,70,0.00,,---,0.00,VWS V15.00,2016-07-24 09:54:00,
2016-07-24 05:59:00,70.2,59.1,29.87,NW,320,8.3,13.0,68,0.00,,---,0.00,VWS V15.00,2016-07-24 09:59:00,
2016-07-24 06:04:00,70.7,58.8,29.87,North,356,6.3,9.6,66,0.00,,---,0.00,VWS V15.00,2016-07-24 10:04:00,
2016-07-24 06:09:00,71.2,58.5,29.90,WNW,297,7.4,8.7,64,0.00,,---,0.00,VWS V15.00,2016-07-24 10:09:00,
2016-07-24 06:14:00,71.6,58.3,29.90,NW,317,11.6,11.6,63,0.00,,---,0.00,VWS V15.00,2016-07-24 10:14:00,
2016-07-24 06:19:00,71.8,58.1,29.90,WNW,285,6.3,11.2,62,0.00,,---,0.00,VWS V15.00,2016-07-24 10:19:00,
2016-07-24 06:24:00,72.3,58.1,29.90,NW,325,7.4,9.6,61,0.00,,---,0.00,VWS V15.00,2016-07-24 10:24:00,
2016-07-24 06:29:00,72.7,57.5,29.90,WNW,295,7.4,8.7,59,0.00,,---,0.00,VWS V15.00,2016-07-24 10:29:00,
2016-07-24 06:34:00,73.0,57.9,29.90,WNW,302,6.9,10.5,59,0.00,,---,0.00,VWS V15.00,2016-07-24 10:34:00,
2016-07-24 06:39:00,73.4,57.7,29.90,NW,305,5.4,8.3,58,0.00,,---,0.00,VWS V15.00,2016-07-24 10:39:00,
2016-07-24 06:44:00,73.6,57.4,29.90,WNW,296,4.5,9.6,57,0.00,,---,0.00,VWS V15.00,2016-07-24 10:44:00,
2016-07-24 06:54:00,73.8,58.1,29.90,NW,316,10.5,11.0,58,0.00,,---,0.00,VWS V15.00,2016-07-24 10:54:00,
2016-07-24 06:59:00,73.8,57.6,29.90,NW,314,6.7,10.5,57,0.00,,---,0.00,VWS V15.00,2016-07-24 10:59:00,
2016-07-24 07:04:00,73.8,58.1,29.90,NW,311,11.2,13.4,58,0.00,,---,0.00,VWS V15.00,2016-07-24 11:04:00,
2016-07-24 07:09:00,74.1,57.9,29.90,WNW,292,6.9,11.2,57,0.00,,---,0.00,VWS V15.00,2016-07-24 11:09:00,
2016-07-24 07:14:00,74.3,58.1,29.90,WNW,300,5.8,8.3,57,0.00,,---,0.00,VWS V15.00,2016-07-24 11:14:00,
2016-07-24 07:19:00,75.4,58.1,29.90,West,281,4.5,10.1,55,0.00,,---,0.00,VWS V15.00,2016-07-24 11:19:00,
2016-07-24 07:24:00,75.4,57.1,29.90,NW,305,9.2,13.0,53,0.00,,---,0.00,VWS V15.00,2016-07-24 11:24:00,
2016-07-24 07:29:00,75.2,56.9,29.90,NW,311,10.5,11.6,53,0.00,,---,0.00,VWS V15.00,2016-07-24 11:29:00,
2016-07-24 07:34:00,75.6,57.2,29.90,NNW,330,10.5,10.5,53,0.00,,---,0.00,VWS V15.00,2016-07-24 11:34:00,
2016-07-24 07:39:00,75.0,57.3,29.93,NNE,25,8.3,9.6,54,0.00,,---,0.00,VWS V15.00,2016-07-24 11:39:00,
2016-07-24 07:44:00,75.2,57.4,29.93,NNW,335,12.1,13.4,54,0.00,,---,0.00,VWS V15.00,2016-07-24 11:44:00,
2016-07-24 07:49:00,75.6,57.8,29.93,NW,304,9.6,9.6,54,0.00,,---,0.00,VWS V15.00,2016-07-24 11:49:00,
2016-07-24 07:54:00,74.5,56.8,29.93,NNW,329,12.5,14.3,54,0.00,,---,0.00,VWS V15.00,2016-07-24 11:54:00,
2016-07-24 07:59:00,74.3,57.1,29.93,NW,320,10.5,10.5,55,0.00,,---,0.00,VWS V15.00,2016-07-24 11:59:00,
2016-07-24 08:04:00,74.8,57.6,29.93,NNW,337,11.6,12.1,55,0.00,,---,0.00,VWS V15.00,2016-07-24 12:04:00,
2016-07-24 08:09:00,75.4,57.1,29.90,NW,324,13.4,14.3,53,0.00,,---,0.00,VWS V15.00,2016-07-24 12:09:00,
2016-07-24 08:14:00,75.6,58.3,29.90,NNW,337,10.5,12.5,55,0.00,,---,0.00,VWS V15.00,2016-07-24 12:14:00,
2016-07-24 08:19:00,75.7,56.9,29.90,NNW,330,6.7,9.2,52,0.00,,---,0.00,VWS V15.00,2016-07-24 12:19:00,
2016-07-24 08:24:00,75.7,57.4,29.93,South,185,8.3,8.3,53,0.00,,---,0.00,VWS V15.00,2016-07-24 12:24:00,
2016-07-24 08:29:00,75.6,57.8,29.93,NW,304,10.5,11.0,54,0.00,,---,0.00,VWS V15.00,2016-07-24 12:29:00,
2016-07-24 08:34:00,75.4,57.6,29.93,NNW,347,7.4,11.6,54,0.00,,---,0.00,VWS V15.00,2016-07-24 12:34:00,
2016-07-24 08:39:00,75.4,58.1,29.93,North,1,4.5,7.4,55,0.00,,---,0.00,VWS V15.00,2016-07-24 12:39:00,
2016-07-24 08:44:00,75.2,59.4,29.93,North,351,5.8,6.9,58,0.00,,---,0.00,VWS V15.00,2016-07-24 12:44:00,
2016-07-24 08:49:00,74.1,59.8,29.93,North,356,9.6,12.1,61,0.00,,---,0.00,VWS V15.00,2016-07-24 12:49:00,
2016-07-24 08:54:00,74.1,60.7,29.93,NNW,333,11.2,11.2,63,0.00,,---,0.00,VWS V15.00,2016-07-24 12:54:00,
2016-07-24 08:59:00,74.5,60.6,29.93,WNW,302,9.6,13.0,62,0.00,,---,0.00,VWS V15.00,2016-07-24 12:59:00,
2016-07-24 09:04:00,74.7,60.3,29.93,NNW,337,10.1,10.1,61,0.00,,---,0.00,VWS V15.00,2016-07-24 13:04:00,
2016-07-24 09:09:00,74.5,60.2,29.93,NNE,27,12.1,12.1,61,0.00,,---,0.00,VWS V15.00,2016-07-24 13:09:00,
2016-07-24 09:14:00,74.8,60.0,29.93,North,351,10.1,10.1,60,0.00,,---,0.00,VWS V15.00,2016-07-24 13:14:00,
2016-07-24 09:19:00,74.8,61.0,29.93,NNW,342,4.9,4.9,62,0.00,,---,0.00,VWS V15.00,2016-07-24 13:19:00,
2016-07-24 09:24:00,75.4,60.5,29.93,NNW,346,6.3,11.2,60,0.00,,---,0.00,VWS V15.00,2016-07-24 13:24:00,
2016-07-24 09:29:00,75.9,60.6,29.93,SE,135,4.0,7.4,59,0.00,,---,0.00,VWS V15.00,2016-07-24 13:29:00,
2016-07-24 09:34:00,76.3,60.4,29.93,NW,304,9.6,11.0,58,0.00,,---,0.00,VWS V15.00,2016-07-24 13:34:00,
2016-07-24 09:39:00,75.7,59.4,29.93,NW,313,10.1,10.5,57,0.00,,---,0.00,VWS V15.00,2016-07-24 13:39:00,
2016-07-24 09:44:00,76.3,60.4,29.93,North,351,6.3,8.3,58,0.00,,---,0.00,VWS V15.00,2016-07-24 13:44:00,
2016-07-24 09:49:00,76.1,60.3,29.93,NW,312,4.0,4.9,58,0.00,,---,0.00,VWS V15.00,2016-07-24 13:49:00,
2016-07-24 09:54:00,76.6,59.8,29.93,North,351,5.4,5.8,56,0.00,,---,0.00,VWS V15.00,2016-07-24 13:54:00,
2016-07-24 09:59:00,75.9,59.1,29.93,NNW,328,9.6,11.6,56,0.00,,---,0.00,VWS V15.00,2016-07-24 13:59:00,
2016-07-24 10:04:00,76.1,59.3,29.93,North,351,12.1,12.1,56,0.00,,---,0.00,VWS V15.00,2016-07-24 14:04:00,
2016-07-24 10:09:00,76.3,59.5,29.93,NNW,327,8.3,12.1,56,0.00,,---,0.00,VWS V15.00,2016-07-24 14:09:00,
2016-07-24 10:14:00,76.6,59.3,29.93,NW,313,9.6,9.6,55,0.00,,---,0.00,VWS V15.00,2016-07-24 14:14:00,
2016-07-24 10:19:00,76.6,58.8,29.93,NW,326,11.0,11.6,54,0.00,,---,0.00,VWS V15.00,2016-07-24 14:19:00,
2016-07-24 10:24:00,77.2,59.8,29.93,NNW,329,6.7,8.7,55,0.00,,---,0.00,VWS V15.00,2016-07-24 14:24:00,
2016-07-24 10:29:00,77.4,58.9,29.93,North,351,8.7,8.7,53,0.00,,---,0.00,VWS V15.00,2016-07-24 14:29:00,
2016-07-24 10:34:00,77.0,57.5,29.93,NNW,347,7.4,7.4,51,0.00,,---,0.00,VWS V15.00,2016-07-24 14:34:00,
2016-07-24 10:39:00,77.5,58.0,29.93,NNW,347,8.3,8.3,51,0.00,,---,0.00,VWS V15.00,2016-07-24 14:39:00,
2016-07-24 10:44:00,78.1,59.0,29.93,North,3,9.6,9.6,52,0.00,,---,0.00,VWS V15.00,2016-07-24 14:44:00,
2016-07-24 10:49:00,77.9,57.8,29.93,NNW,336,7.8,7.8,50,0.00,,---,0.00,VWS V15.00,2016-07-24 14:49:00,
2016-07-24 10:54:00,77.4,57.3,29.93,NNE,12,6.9,6.9,50,0.00,,---,0.00,VWS V15.00,2016-07-24 14:54:00,
2016-07-24 10:59:00,78.1,58.5,29.93,NW,319,7.4,7.4,51,0.00,,---,0.00,VWS V15.00,2016-07-24 14:59:00,
2016-07-24 11:04:00,78.3,59.2,29.93,North,351,7.4,7.4,52,0.00,,---,0.00,VWS V15.00,2016-07-24 15:04:00,
2016-07-24 11:09:00,78.3,58.1,29.93,NW,322,6.3,6.3,50,0.00,,---,0.00,VWS V15.00,2016-07-24 15:09:00,
2016-07-24 11:14:00,78.4,58.3,29.93,NW,317,9.2,9.2,50,0.00,,---,0.00,VWS V15.00,2016-07-24 15:14:00,
2016-07-24 11:19:00,78.6,59.0,29.93,North,356,6.9,6.9,51,0.00,,---,0.00,VWS V15.00,2016-07-24 15:19:00,
2016-07-24 11:24:00,78.6,57.9,29.93,NW,312,6.3,9.2,49,0.00,,---,0.00,VWS V15.00,2016-07-24 15:24:00,
2016-07-24 11:29:00,79.0,58.2,29.93,North,351,11.0,12.1,49,0.00,,---,0.00,VWS V15.00,2016-07-24 15:29:00,
2016-07-24 11:34:00,78.6,57.3,29.93,NNW,343,5.4,5.4,48,0.00,,---,0.00,VWS V15.00,2016-07-24 15:34:00,
2016-07-24 11:39:00,79.5,57.5,29.93,WNW,297,7.8,8.3,47,0.00,,---,0.00,VWS V15.00,2016-07-24 15:39:00,
2016-07-24 11:44:00,79.2,57.8,29.93,NE,39,7.4,10.1,48,0.00,,---,0.00,VWS V15.00,2016-07-24 15:44:00,
2016-07-24 11:48:00,79.5,57.0,29.93,NNW,340,6.9,9.6,46,0.00,,---,0.00,VWS V15.00,2016-07-24 15:48:00,
2016-07-24 11:53:00,79.9,56.7,29.93,NNW,328,7.4,9.2,45,0.00,,---,0.00,VWS V15.00,2016-07-24 15:53:00,
2016-07-24 11:58:00,79.9,56.0,29.93,NE,35,6.3,10.1,44,0.00,,---,0.00,VWS V15.00,2016-07-24 15:58:00,
2016-07-24 12:03:00,80.1,56.2,29.93,NW,323,6.9,7.8,44,0.00,,---,0.00,VWS V15.00,2016-07-24 16:03:00,
2016-07-24 12:08:00,80.2,55.7,29.93,NNE,21,8.3,11.0,43,0.00,,---,0.00,VWS V15.00,2016-07-24 16:08:00,
2016-07-24 12:13:00,80.2,55.1,29.93,North,356,4.0,7.8,42,0.00,,---,0.00,VWS V15.00,2016-07-24 16:13:00,
2016-07-24 12:23:00,80.6,53.4,29.96,NNE,13,7.8,9.6,39,0.00,,---,0.00,VWS V15.00,2016-07-24 16:23:00,
2016-07-24 12:28:00,81.3,54.7,29.96,WNW,302,6.9,7.8,40,0.00,,---,0.00,VWS V15.00,2016-07-24 16:28:00,
2016-07-24 12:33:00,81.1,54.5,29.96,NE,54,8.3,10.5,40,0.00,,---,0.00,VWS V15.00,2016-07-24 16:33:00,
2016-07-24 12:38:00,81.1,54.5,29.93,NE,41,8.7,10.1,40,0.00,,---,0.00,VWS V15.00,2016-07-24 16:38:00,
2016-07-24 12:43:00,81.5,54.2,29.93,NNE,18,5.8,7.8,39,0.00,,---,0.00,VWS V15.00,2016-07-24 16:43:00,
2016-07-24 12:48:00,82.2,54.1,29.93,North,351,8.3,9.2,38,0.00,,---,0.00,VWS V15.00,2016-07-24 16:48:00,
2016-07-24 12:53:00,82.0,54.7,29.93,NNE,16,6.3,8.3,39,0.00,,---,0.00,VWS V15.00,2016-07-24 16:53:00,
2016-07-24 12:58:00,82.9,55.5,29.93,NE,56,7.8,8.3,39,0.00,,---,0.00,VWS V15.00,2016-07-24 16:58:00,
2016-07-24 13:03:00,82.9,54.8,29.93,NNE,17,5.8,6.3,38,0.00,,---,0.00,VWS V15.00,2016-07-24 17:03:00,
2016-07-24 13:08:00,83.3,55.1,29.93,NNE,25,8.3,8.7,38,0.00,,---,0.00,VWS V15.00,2016-07-24 17:08:00,
2016-07-24 13:13:00,82.4,54.3,29.93,North,11,5.4,5.4,38,0.00,,---,0.00,VWS V15.00,2016-07-24 17:13:00,
2016-07-24 13:18:00,84.0,54.2,29.93,NNW,334,0.0,2.7,36,0.00,,---,0.00,VWS V15.00,2016-07-24 17:18:00,
2016-07-24 13:23:00,82.6,53.7,29.96,WNW,298,4.0,5.4,37,0.00,,---,0.00,VWS V15.00,2016-07-24 17:23:00,